Time,TemperatureF,DewpointF,PressureIn,WindDirection,WindDirectionDegrees,WindSpeedMPH,WindSpeedGustMPH,Humidity,HourlyPrecipIn,Conditions,Clouds,dailyrainin,SoftwareType,DateUTC
2013-05-13 00:00:00,38.0,23.0,-100.00,North,4,11.0,14.0,54,-99.99,,,-99.99,,2013-05-13 06:00:00,
2013-05-13 00:42:00,38.0,23.0,-100.00,North,4,11.0,14.0,54,-99.99,,,-99.99,,2013-05-13 06:42:00,
2013-05-13 00:52:00,38.0,23.0,-100.00,North,4,11.0,14.0,54,-99.99,,,-99.99,,2013-05-13 06:52:00,
2013-05-13 01:00:00,38.0,23.0,-100.00,North,3,10.0,16.0,54,-99.99,,,-99.99,,2013-05-13 07:00:00,
2013-05-13 01:42:00,38.0,23.0,-100.00,North,3,10.0,16.0,54,-99.99,,,-99.99,,2013-05-13 07:42:00,
2013-05-13 01:52:00,38.0,23.0,-100.00,North,3,10.0,16.0,54,-99.99,,,-99.99,,2013-05-13 07:52:00,
2013-05-13 02:00:00,38.0,23.0,-100.00,North,9,9.0,12.0,55,-99.99,,,-99.99,,2013-05-13 08:00:00,
2013-05-13 02:42:00,38.0,23.0,-100.00,North,9,9.0,12.0,55,-99.99,,,-99.99,,2013-05-13 08:42:00,
2013-05-13 02:52:00,38.0,23.0,-100.00,North,9,9.0,12.0,55,-99.99,,,-99.99,,2013-05-13 08:52:00,
2013-05-13 03:00:00,39.0,21.0,-100.00,NNE,22,9.0,12.0,48,-99.99,,,-99.99,,2013-05-13 09:00:00,
2013-05-13 03:42:00,39.0,21.0,-100.00,NNE,22,9.0,12.0,48,-99.99,,,-99.99,,2013-05-13 09:42:00,
2013-05-13 03:52:00,39.0,21.0,-100.00,NNE,22,9.0,12.0,48,-99.99,,,-99.99,,2013-05-13 09:52:00,
2013-05-13 04:00:00,38.0,23.0,-100.00,North,7,10.0,12.0,55,-99.99,,,-99.99,,2013-05-13 10:00:00,
2013-05-13 04:43:00,38.0,23.0,-100.00,North,7,10.0,12.0,55,-99.99,,,-99.99,,2013-05-13 10:43:00,
2013-05-13 04:52:00,38.0,23.0,-100.00,North,7,10.0,12.0,55,-99.99,,,-99.99,,2013-05-13 10:52:00,
2013-05-13 05:00:00,39.0,19.0,-100.00,North,6,11.0,18.0,44,-99.99,,,-99.99,,2013-05-13 11:00:00,
2013-05-13 05:42:00,39.0,19.0,-100.00,North,6,11.0,18.0,44,-99.99,,,-99.99,,2013-05-13 11:42:00,
2013-05-13 05:52:00,39.0,19.0,-100.00,North,6,11.0,18.0,44,-99.99,,,-99.99,,2013-05-13 11:52:00,
2013-05-13 06:00:00,39.0,20.0,-100.00,North,6,11.0,17.0,45,-99.99,,,-99.99,,2013-05-13 12:00:00,
2013-05-13 06:42:00,39.0,20.0,-100.00,North,6,11.0,17.0,45,-99.99,,,-99.99,,2013-05-13 12:42:00,
2013-05-13 06:52:00,39.0,20.0,-100.00,North,6,11.0,17.0,45,-99.99,,,-99.99,,2013-05-13 12:52:00,
2013-05-13 07:00:00,39.0,21.0,-100.00,NNE,12,12.0,19.0,47,-99.99,,,-99.99,,2013-05-13 13:00:00,
2013-05-13 07:42:00,39.0,21.0,-100.00,NNE,12,12.0,19.0,47,-99.99,,,-99.99,,2013-05-13 13:42:00,
2013-05-13 07:52:00,39.0,21.0,-100.00,NNE,12,12.0,19.0,47,-99.99,,,-99.99,,2013-05-13 13:52:00,
2013-05-13 08:00:00,40.0,22.0,-100.00,North,9,12.0,18.0,49,-99.99,,,-99.99,,2013-05-13 14:00:00,
2013-05-13 08:42:00,40.0,22.0,-100.00,North,9,12.0,18.0,49,-99.99,,,-99.99,,2013-05-13 14:42:00,
2013-05-13 08:52:00,40.0,22.0,-100.00,North,9,12.0,18.0,49,-99.99,,,-99.99,,2013-05-13 14:52:00,
2013-05-13 09:00:00,40.0,22.0,-100.00,North,3,10.0,15.0,48,-99.99,,,-99.99,,2013-05-13 15:00:00,
2013-05-13 09:42:00,40.0,22.0,-100.00,North,3,10.0,15.0,48,-99.99,,,-99.99,,2013-05-13 15:42:00,
2013-05-13 09:53:00,40.0,22.0,-100.00,North,3,10.0,15.0,48,-99.99,,,-99.99,,2013-05-13 15:53:00,
2013-05-13 10:00:00,42.0,23.0,-100.00,North,353,7.0,14.0,47,-99.99,,,-99.99,,2013-05-13 16:00:00,
2013-05-13 10:43:00,42.0,23.0,-100.00,North,353,7.0,14.0,47,-99.99,,,-99.99,,2013-05-13 16:43:00,
2013-05-13 10:52:00,42.0,23.0,-100.00,North,353,7.0,14.0,47,-99.99,,,-99.99,,2013-05-13 16:52:00,
2013-05-13 11:00:00,45.0,25.0,-100.00,North,358,4.0,11.0,45,-99.99,,,-99.99,,2013-05-13 17:00:00,
2013-05-13 11:42:00,45.0,25.0,-100.00,North,358,4.0,11.0,45,-99.99,,,-99.99,,2013-05-13 17:42:00,
2013-05-13 11:54:00,45.0,25.0,-100.00,North,358,4.0,11.0,45,-99.99,,,-99.99,,2013-05-13 17:54:00,
2013-05-13 12:00:00,48.0,24.0,-100.00,NNE,21,4.0,14.0,40,-99.99,,,-99.99,,2013-05-13 18:00:00,
2013-05-13 12:42:00,48.0,24.0,-100.00,NNE,21,4.0,14.0,40,-99.99,,,-99.99,,2013-05-13 18:42:00,
2013-05-13 12:52:00,48.0,24.0,-100.00,NNE,21,4.0,14.0,40,-99.99,,,-99.99,,2013-05-13 18:52:00,
2013-05-13 13:00:00,49.0,21.0,-100.00,SSE,154,4.0,10.0,32,-99.99,,,-99.99,,2013-05-13 19:00:00,
2013-05-13 13:44:00,49.0,21.0,-100.00,SSE,154,4.0,10.0,32,-99.99,,,-99.99,,2013-05-13 19:44:00,
2013-05-13 13:53:00,49.0,21.0,-100.00,SSE,154,4.0,10.0,32,-99.99,,,-99.99,,2013-05-13 19:53:00,
2013-05-13 14:00:00,51.0,19.0,-100.00,ESE,110,3.0,8.0,27,-99.99,,,-99.99,,2013-05-13 20:00:00,
2013-05-13 14:44:00,51.0,19.0,-100.00,ESE,110,3.0,8.0,27,-99.99,,,-99.99,,2013-05-13 20:44:00,
2013-05-13 14:53:00,51.0,19.0,-100.00,ESE,110,3.0,8.0,27,-99.99,,,-99.99,,2013-05-13 20:53:00,
2013-05-13 15:00:00,50.0,20.0,-100.00,West,262,6.0,15.0,29,-99.99,,,-99.99,,2013-05-13 21:00:00,
2013-05-13 15:43:00,50.0,20.0,-100.00,West,262,6.0,15.0,29,-99.99,,,-99.99,,2013-05-13 21:43:00,
2013-05-13 15:53:00,50.0,20.0,-100.00,West,262,6.0,15.0,29,-99.99,,,-99.99,,2013-05-13 21:53:00,
2013-05-13 16:00:00,50.0,20.0,-100.00,SW,230,6.0,13.0,30,-99.99,,,-99.99,,2013-05-13 22:00:00,
2013-05-13 16:43:00,50.0,20.0,-100.00,SW,230,6.0,13.0,30,-99.99,,,-99.99,,2013-05-13 22:43:00,
2013-05-13 16:52:00,50.0,20.0,-100.00,SW,230,6.0,13.0,30,-99.99,,,-99.99,,2013-05-13 22:52:00,
2013-05-13 17:00:00,50.0,25.0,-100.00,West,261,6.0,14.0,38,-99.99,,,-99.99,,2013-05-13 23:00:00,
2013-05-13 17:42:00,50.0,25.0,-100.00,West,261,6.0,14.0,38,-99.99,,,-99.99,,2013-05-13 23:42:00,
2013-05-13 17:54:00,50.0,25.0,-100.00,West,261,6.0,14.0,38,-99.99,,,-99.99,,2013-05-13 23:54:00,
2013-05-13 18:00:00,42.0,30.0,-100.00,NW,322,9.0,23.0,60,-99.99,,,-99.99,,2013-05-14 00:00:00,
2013-05-13 18:42:00,42.0,30.0,-100.00,NW,322,9.0,23.0,60,-99.99,,,-99.99,,2013-05-14 00:42:00,
2013-05-13 18:51:00,42.0,30.0,-100.00,NW,322,9.0,23.0,60,-99.99,,,-99.99,,2013-05-14 00:51:00,
2013-05-13 19:00:00,36.0,32.0,-100.00,SE,128,17.0,24.0,83,-99.99,,,-99.99,,2013-05-14 01:00:00,
2013-05-13 19:43:00,36.0,32.0,-100.00,SE,128,17.0,24.0,83,-99.99,,,-99.99,,2013-05-14 01:43:00,
2013-05-13 19:53:00,36.0,32.0,-100.00,SE,128,17.0,24.0,83,-99.99,,,-99.99,,2013-05-14 01:53:00,
2013-05-13 20:00:00,36.0,32.0,-100.00,SSE,159,14.0,20.0,82,-99.99,,,-99.99,,2013-05-14 02:00:00,
2013-05-13 20:42:00,36.0,32.0,-100.00,SSE,159,14.0,20.0,82,-99.99,,,-99.99,,2013-05-14 02:42:00,
2013-05-13 20:52:00,36.0,32.0,-100.00,SSE,159,14.0,20.0,82,-99.99,,,-99.99,,2013-05-14 02:52:00,
2013-05-13 21:00:00,38.0,31.0,-100.00,SSE,152,12.0,16.0,75,-99.99,,,-99.99,,2013-05-14 03:00:00,
2013-05-13 21:42:00,38.0,31.0,-100.00,SSE,152,12.0,16.0,75,-99.99,,,-99.99,,2013-05-14 03:42:00,
2013-05-13 21:53:00,38.0,31.0,-100.00,SSE,152,12.0,16.0,75,-99.99,,,-99.99,,2013-05-14 03:53:00,
2013-05-13 22:00:00,40.0,29.0,-100.00,SE,141,10.0,13.0,64,-99.99,,,-99.99,,2013-05-14 04:00:00,
2013-05-13 22:43:00,40.0,29.0,-100.00,SE,141,10.0,13.0,64,-99.99,,,-99.99,,2013-05-14 04:43:00,
2013-05-13 22:53:00,40.0,29.0,-100.00,SE,141,10.0,13.0,64,-99.99,,,-99.99,,2013-05-14 04:53:00,
2013-05-13 23:00:00,42.0,25.0,-100.00,SE,126,7.0,10.0,52,-99.99,,,-99.99,,2013-05-14 05:00:00,
2013-05-13 23:42:00,42.0,25.0,-100.00,SE,126,7.0,10.0,52,-99.99,,,-99.99,,2013-05-14 05:42:00,
2013-05-13 23:52:00,42.0,25.0,-100.00,SE,126,7.0,10.0,52,-99.99,,,-99.99,,2013-05-14 05:52:00,